Time;durP1;ratioP1;P1;durP2;ratioP2;P2;SDS_P1;SDS_P2;PMS_P1;PMS_P2;Temp;Humidity;BMP_temperature;BMP_pressure;BME280_temperature;BME280_humidity;BME280_pressure;Samples;Min_cycle;Max_cycle;Signal;HPM_P1;HPM_P2
2023/10/16 00:00:47;;;;;;;4.03;2.20;;;;;;;7.31;100.00;96194.44;6282760;22;20010;-76
2023/10/16 00:03:14;;;;;;;2.45;2.25;;;;;;;7.35;100.00;96197.69;6282883;22;20011;-76
2023/10/16 00:05:45;;;;;;;2.60;2.40;;;;;;;7.34;100.00;96193.38;6310028;22;20423;-76
2023/10/16 00:08:16;;;;;;;3.97;2.55;;;;;;;7.36;100.00;96196.72;6309629;22;19999;-76
2023/10/16 00:10:43;;;;;;;2.65;2.40;;;;;;;7.34;100.00;96194.22;6282916;22;20029;-76
2023/10/16 00:13:11;;;;;;;2.75;2.08;;;;;;;7.33;100.00;96192.53;6309909;22;20007;-76
2023/10/16 00:15:44;;;;;;;2.38;2.17;;;;;;;7.33;100.00;96187.28;6309820;22;20027;-76
2023/10/16 00:18:17;;;;;;;6.30;2.38;;;;;;;7.31;100.00;96194.44;6309657;22;20074;-76
2023/10/16 00:20:43;;;;;;;2.78;2.42;;;;;;;7.25;100.00;96189.63;6309314;22;20013;-76
2023/10/16 00:23:12;;;;;;;2.60;2.40;;;;;;;7.23;100.00;96187.13;6309165;22;19999;-76
2023/10/16 00:25:41;;;;;;;3.38;2.40;;;;;;;7.24;100.00;96196.66;6309864;22;20022;-76
2023/10/16 00:28:07;;;;;;;2.70;2.40;;;;;;;7.29;100.00;96196.31;6310241;22;20078;-76
2023/10/16 00:30:34;;;;;;;2.90;2.40;;;;;;;7.33;100.00;96197.78;6282390;22;20065;-76
2023/10/16 00:33:00;;;;;;;2.25;2.08;;;;;;;7.36;100.00;96202.78;6309224;22;20006;-76
2023/10/16 00:35:25;;;;;;;3.22;2.20;;;;;;;7.38;100.00;96200.91;6282178;22;20003;-76
2023/10/16 00:37:50;;;;;;;2.63;2.42;;;;;;;7.37;100.00;96201.84;6282932;22;20022;-76
2023/10/16 00:40:31;;;;;;;2.63;2.28;;;;;;;7.39;100.00;96196.50;6309713;22;19999;-77
2023/10/16 00:43:06;;;;;;;2.90;2.40;;;;;;;7.42;100.00;96212.84;6282994;22;20400;-77
2023/10/16 00:45:45;;;;;;;2.23;2.03;;;;;;;7.46;100.00;96213.44;6307638;22;19999;-77
2023/10/16 00:48:12;;;;;;;2.42;2.22;;;;;;;7.44;100.00;96215.34;6308864;22;20650;-77
2023/10/16 00:50:38;;;;;;;2.45;2.25;;;;;;;7.50;100.00;96214.91;6308398;22;20000;-78
2023/10/16 00:53:07;;;;;;;2.55;2.35;;;;;;;7.51;100.00;96216.56;6281925;22;20086;-77
2023/10/16 00:55:33;;;;;;;2.60;2.40;;;;;;;7.52;100.00;96212.19;6309485;22;20294;-77
2023/10/16 00:58:00;;;;;;;3.50;2.65;;;;;;;7.50;100.00;96219.31;6309808;22;20021;-77
2023/10/16 01:00:27;;;;;;;3.95;2.67;;;;;;;7.56;100.00;96214.47;6309589;22;20009;-77
2023/10/16 01:02:52;;;;;;;4.75;2.70;;;;;;;7.54;100.00;96218.16;6308867;22;19995;-77
2023/10/16 01:05:23;;;;;;;2.42;2.22;;;;;;;7.52;100.00;96202.56;6307302;22;20003;-77
2023/10/16 01:07:49;;;;;;;4.40;2.60;;;;;;;7.54;100.00;96211.13;6281796;22;20014;-77
2023/10/16 01:10:16;;;;;;;2.65;2.35;;;;;;;7.63;100.00;96214.03;6308977;22;19999;-77
2023/10/16 01:12:54;;;;;;;2.58;2.38;;;;;;;7.64;100.00;96211.31;6310429;22;20008;-77
2023/10/16 01:15:22;;;;;;;2.95;2.10;;;;;;;7.66;100.00;96201.56;6309575;22;20494;-77
2023/10/16 01:17:48;;;;;;;6.80;2.47;;;;;;;7.68;100.00;96201.41;6308011;22;20481;-77
2023/10/16 01:20:18;;;;;;;3.45;2.40;;;;;;;7.65;100.00;96192.03;6282026;22;20034;-76
2023/10/16 01:22:47;;;;;;;2.80;2.45;;;;;;;7.63;100.00;96195.69;6308978;22;20070;-77
2023/10/16 01:25:14;;;;;;;3.42;2.85;;;;;;;7.63;100.00;96198.31;6307635;22;20017;-77
2023/10/16 01:27:42;;;;;;;2.88;2.30;;;;;;;7.64;100.00;96194.75;6309761;22;20423;-77
2023/10/16 01:30:09;;;;;;;5.57;2.40;;;;;;;7.63;100.00;96200.94;6309073;22;19999;-78
2023/10/16 01:32:34;;;;;;;2.30;2.13;;;;;;;7.66;100.00;96192.84;6281708;22;20350;-77
2023/10/16 01:35:01;;;;;;;2.40;2.20;;;;;;;7.68;100.00;96189.16;6309141;22;19999;-77
2023/10/16 01:37:27;;;;;;;3.17;2.53;;;;;;;7.63;100.00;96182.59;6308658;22;20003;-77
2023/10/16 01:40:11;;;;;;;5.53;2.10;;;;;;;7.62;100.00;96176.50;6309235;22;20442;-77
2023/10/16 01:42:37;;;;;;;2.10;1.90;;;;;;;7.60;100.00;96178.38;6309602;22;19996;-77
2023/10/16 01:45:04;;;;;;;3.20;2.05;;;;;;;7.59;100.00;96182.81;6281256;22;20152;-77
2023/10/16 01:47:29;;;;;;;1.90;1.80;;;;;;;7.60;100.00;96173.16;6308948;22;19999;-77
2023/10/16 01:49:55;;;;;;;2.17;1.98;;;;;;;7.58;100.00;96167.19;6308714;22;20098;-77
2023/10/16 01:52:22;;;;;;;3.97;3.55;;;;;;;7.52;100.00;96165.88;6308895;22;20441;-77
2023/10/16 01:54:48;;;;;;;2.40;2.20;;;;;;;7.45;100.00;96162.84;6308651;22;19999;-77
2023/10/16 01:57:14;;;;;;;2.28;2.08;;;;;;;7.40;100.00;96167.56;6309269;22;20029;-77
2023/10/16 01:59:47;;;;;;;2.40;2.20;;;;;;;7.36;100.00;96162.69;6309183;22;20300;-78
2023/10/16 02:02:13;;;;;;;3.67;1.90;;;;;;;7.32;100.00;96156.81;6309163;22;19995;-78
2023/10/16 02:04:40;;;;;;;2.50;2.30;;;;;;;7.33;100.00;96153.25;6308618;22;20050;-77
2023/10/16 02:07:09;;;;;;;3.05;2.13;;;;;;;7.33;100.00;96155.88;6308325;22;20301;-77
2023/10/16 02:09:36;;;;;;;2.03;1.80;;;;;;;7.35;100.00;96153.97;6309034;22;20006;-77
2023/10/16 02:12:16;;;;;;;3.10;2.22;;;;;;;7.30;100.00;96154.31;6308088;22;20003;-77
2023/10/16 02:14:42;;;;;;;3.22;2.28;;;;;;;7.28;100.00;96150.94;6308877;22;20359;-77
2023/10/16 02:17:14;;;;;;;2.70;2.10;;;;;;;7.24;100.00;96149.50;6306306;22;20003;-77
2023/10/16 02:19:45;;;;;;;3.28;2.20;;;;;;;7.21;100.00;96156.75;6308424;22;20388;-77
2023/10/16 02:22:11;;;;;;;2.60;2.40;;;;;;;7.17;100.00;96143.84;6308355;22;20019;-77
2023/10/16 02:24:37;;;;;;;3.88;2.30;;;;;;;7.13;100.00;96138.97;6308904;22;19999;-77
2023/10/16 02:27:09;;;;;;;2.40;2.20;;;;;;;7.06;100.00;96141.19;6281265;22;20482;-77
2023/10/16 02:29:37;;;;;;;2.90;2.13;;;;;;;6.99;100.00;96138.16;6308231;22;20015;-77
2023/10/16 02:32:03;;;;;;;3.20;2.30;;;;;;;7.00;100.00;96136.41;6308296;22;20413;-77
2023/10/16 02:34:33;;;;;;;2.50;2.30;;;;;;;6.95;100.00;96136.72;6308837;22;19999;-77
2023/10/16 02:37:06;;;;;;;2.35;2.15;;;;;;;6.94;100.00;96139.44;6307552;22;19999;-77
2023/10/16 02:39:38;;;;;;;4.32;2.40;;;;;;;6.92;100.00;96138.69;6309121;22;19995;-77
2023/10/16 02:42:14;;;;;;;2.75;2.22;;;;;;;6.88;100.00;96138.09;6280959;22;20002;-77
2023/10/16 02:44:42;;;;;;;2.30;2.00;;;;;;;6.90;100.00;96137.97;6308259;22;20037;-77
2023/10/16 02:47:09;;;;;;;2.58;2.13;;;;;;;6.88;100.00;96136.31;6308900;22;19999;-77
2023/10/16 02:49:36;;;;;;;2.20;2.00;;;;;;;6.88;100.00;96138.09;6308118;22;20000;-77
2023/10/16 02:52:01;;;;;;;2.03;1.92;;;;;;;6.83;100.00;96143.66;6305617;22;20004;-77
2023/10/16 02:54:26;;;;;;;2.40;2.22;;;;;;;6.84;100.00;96136.63;6308174;22;20011;-77
2023/10/16 02:56:59;;;;;;;2.45;2.25;;;;;;;6.83;100.00;96134.94;6307189;22;19995;-77
2023/10/16 02:59:26;;;;;;;2.85;2.38;;;;;;;6.84;100.00;96144.47;6308059;22;20067;-77
2023/10/16 03:01:53;;;;;;;2.63;2.22;;;;;;;6.82;100.00;96136.75;6309788;22;20021;-77
2023/10/16 03:04:21;;;;;;;3.47;2.33;;;;;;;6.77;100.00;96138.00;6310081;22;20152;-77
2023/10/16 03:06:48;;;;;;;2.75;2.00;;;;;;;6.74;100.00;96142.50;6283551;22;20313;-77
2023/10/16 03:09:31;;;;;;;2.50;2.22;;;;;;;6.70;100.00;96133.22;6310205;22;20417;-77
2023/10/16 03:12:08;;;;;;;4.32;2.50;;;;;;;6.71;100.00;96128.78;6283710;22;20006;-77
2023/10/16 03:14:48;;;;;;;2.30;2.10;;;;;;;6.68;100.00;96139.47;6308788;22;19995;-77
2023/10/16 03:17:25;;;;;;;2.40;2.20;;;;;;;6.68;100.00;96136.88;6308665;22;20312;-77
2023/10/16 03:19:54;;;;;;;2.50;2.30;;;;;;;6.66;100.00;96125.66;6310420;22;20003;-77
2023/10/16 03:22:21;;;;;;;2.15;2.05;;;;;;;6.70;100.00;96130.59;6312004;22;20083;-77
2023/10/16 03:24:47;;;;;;;2.65;2.30;;;;;;;6.70;100.00;96132.34;6311799;22;19999;-77
2023/10/16 03:27:27;;;;;;;2.80;2.10;;;;;;;6.68;100.00;96135.09;6310609;22;19995;-77
2023/10/16 03:29:54;;;;;;;5.47;2.33;;;;;;;6.69;100.00;96130.69;6310460;22;20029;-77
2023/10/16 03:32:20;;;;;;;2.65;2.20;;;;;;;6.71;100.00;96139.25;6280893;22;20417;-77
2023/10/16 03:34:46;;;;;;;2.53;2.33;;;;;;;6.66;100.00;96129.13;6309823;22;20029;-77
2023/10/16 03:37:13;;;;;;;2.35;2.15;;;;;;;6.63;100.00;96131.97;6310792;22;19999;-77
2023/10/16 03:39:39;;;;;;;2.50;2.30;;;;;;;6.65;100.00;96131.84;6311743;22;20014;-77
2023/10/16 03:42:09;;;;;;;3.85;2.50;;;;;;;6.61;100.00;96138.25;6310765;22;20062;-77
2023/10/16 03:44:36;;;;;;;3.13;2.53;;;;;;;6.61;100.00;96130.38;6310629;22;19999;-77
2023/10/16 03:47:05;;;;;;;4.03;2.50;;;;;;;6.61;100.00;96139.06;6310488;22;20409;-77
2023/10/16 03:49:31;;;;;;;5.95;2.28;;;;;;;6.61;100.00;96127.78;6283251;22;20140;-77
2023/10/16 03:51:57;;;;;;;4.28;2.40;;;;;;;6.64;100.00;96127.56;6310348;22;20003;-77
2023/10/16 03:54:30;;;;;;;4.85;2.58;;;;;;;6.63;100.00;96123.28;6310470;22;20005;-77
2023/10/16 03:57:00;;;;;;;2.53;2.33;;;;;;;6.57;100.00;96125.38;6310420;22;20025;-77
2023/10/16 03:59:29;;;;;;;2.70;2.50;;;;;;;6.58;100.00;96129.66;6310443;22;19995;-77
2023/10/16 04:01:56;;;;;;;2.50;2.30;;;;;;;6.58;100.00;96123.59;6283637;22;19991;-77
2023/10/16 04:04:25;;;;;;;2.80;2.50;;;;;;;6.55;100.00;96123.78;6309959;22;20019;-77
2023/10/16 04:06:52;;;;;;;2.60;2.40;;;;;;;6.50;100.00;96120.66;6309956;22;20129;-77
2023/10/16 04:09:19;;;;;;;2.88;2.20;;;;;;;6.52;100.00;96119.63;6310741;22;20003;-77
2023/10/16 04:11:54;;;;;;;2.85;2.53;;;;;;;6.49;100.00;96117.19;6283148;22;20007;-77
2023/10/16 04:14:36;;;;;;;6.13;2.72;;;;;;;6.46;100.00;96117.41;6311175;22;20602;-77
2023/10/16 04:17:02;;;;;;;6.95;2.80;;;;;;;6.49;100.00;96121.63;6312699;22;20002;-77
2023/10/16 04:22:16;;;;;;;2.63;2.42;;;;;;;6.46;100.00;96120.03;6315392;22;20095;-76
2023/10/16 04:24:44;;;;;;;3.70;2.38;;;;;;;6.50;100.00;96115.44;6316888;22;20005;-77
2023/10/16 04:29:46;;;;;;;3.03;2.35;;;;;;;6.43;100.00;96130.72;6312801;22;20120;-77
2023/10/16 04:35:03;;;;;;;2.70;2.38;;;;;;;6.46;100.00;96122.66;6316175;22;20125;-77
2023/10/16 04:47:56;;;;;;;3.45;2.50;;;;;;;6.27;100.00;96121.28;6312321;22;20007;-77
2023/10/16 04:50:31;;;;;;;4.80;3.20;;;;;;;6.30;100.00;96110.66;6312401;22;20014;-77
2023/10/16 06:14:13;;;;;;;2.83;2.65;;;;;;;5.82;100.00;96058.09;6307894;22;20448;-76
2023/10/16 06:16:43;;;;;;;3.35;3.15;;;;;;;5.83;100.00;96063.22;6308272;22;20413;-76
2023/10/16 06:19:18;;;;;;;2.90;2.70;;;;;;;5.85;100.00;96057.88;6309245;22;20049;-77
2023/10/16 06:21:47;;;;;;;;;;;;;;;5.86;100.00;96064.81;6310065;22;20064;-77
2023/10/16 06:26:53;;;;;;;3.63;3.20;;;;;;;5.99;100.00;96063.03;6309343;22;20025;-76
2023/10/16 06:29:19;;;;;;;6.35;3.28;;;;;;;6.00;100.00;96072.53;6307552;22;20064;-76
2023/10/16 06:31:53;;;;;;;4.95;3.10;;;;;;;6.02;100.00;96064.63;6308272;22;20224;-76
2023/10/16 06:34:24;;;;;;;3.45;2.95;;;;;;;6.05;100.00;96066.19;6306629;22;20063;-76
2023/10/16 06:36:53;;;;;;;3.70;3.40;;;;;;;6.05;100.00;96066.19;6282182;22;20003;-77
2023/10/16 06:39:35;;;;;;;7.15;3.38;;;;;;;6.01;100.00;96071.63;6310713;22;20046;-77
2023/10/16 06:42:02;;;;;;;4.90;4.43;;;;;;;6.06;100.00;96065.25;6311059;22;20006;-77
2023/10/16 06:44:28;;;;;;;6.20;5.60;;;;;;;6.11;100.00;96068.41;6311240;22;19999;-77
2023/10/16 06:47:01;;;;;;;8.02;7.28;;;;;;;6.11;100.00;96069.22;6283546;22;20010;-76
2023/10/16 06:49:37;;;;;;;6.70;6.07;;;;;;;6.09;100.00;96068.50;6309632;22;20368;-77
2023/10/16 06:52:04;;;;;;;4.20;3.85;;;;;;;6.14;100.00;96073.41;6311083;22;20003;-76
2023/10/16 06:54:37;;;;;;;8.02;3.50;;;;;;;6.14;100.00;96074.22;6310251;22;20316;-76
2023/10/16 06:57:12;;;;;;;5.15;3.30;;;;;;;6.16;100.00;96071.53;6282748;22;20003;-76
2023/10/16 06:59:45;;;;;;;10.05;2.70;;;;;;;6.20;100.00;96078.22;6310568;22;19999;-76
2023/10/16 07:02:15;;;;;;;5.43;3.38;;;;;;;6.25;100.00;96070.88;6311623;22;20000;-76
2023/10/16 07:04:47;;;;;;;3.00;2.78;;;;;;;6.32;100.00;96065.25;6310326;22;20026;-76
2023/10/16 07:07:15;;;;;;;5.40;3.03;;;;;;;6.40;100.00;96070.78;6309637;22;19999;-76
2023/10/16 07:09:47;;;;;;;3.88;3.58;;;;;;;6.40;100.00;96068.97;6309742;22;20514;-76
2023/10/16 07:12:17;;;;;;;5.05;3.88;;;;;;;6.40;100.00;96068.16;6310845;22;20015;-77
2023/10/16 07:14:55;;;;;;;3.30;3.00;;;;;;;6.42;100.00;96072.34;6281757;22;20007;-76
2023/10/16 07:17:29;;;;;;;3.47;3.22;;;;;;;6.47;100.00;96085.09;6309531;22;20005;-76
2023/10/16 07:19:58;;;;;;;5.83;3.20;;;;;;;6.48;100.00;96083.31;6310459;22;19999;-76
2023/10/16 07:22:33;;;;;;;2.95;2.72;;;;;;;6.51;100.00;96080.50;6310925;22;20232;-76
2023/10/16 07:25:24;;;;;;;3.72;2.90;;;;;;;6.52;100.00;96085.63;6309098;22;20007;-76
2023/10/16 07:27:48;;;;;;;5.95;2.83;;;;;;;6.50;100.00;96086.66;6308495;22;20003;-76
2023/10/16 07:30:23;;;;;;;3.47;3.17;;;;;;;6.51;100.00;96091.78;6310552;22;19999;-76
2023/10/16 07:32:51;;;;;;;3.20;3.00;;;;;;;6.51;100.00;96083.94;6285791;22;20053;-74
2023/10/16 07:35:21;;;;;;;5.28;3.40;;;;;;;6.55;100.00;96092.41;6310265;22;20018;-74
2023/10/16 07:37:53;;;;;;;4.22;3.33;;;;;;;6.53;100.00;96084.69;6310913;22;20002;-74
2023/10/16 07:40:25;;;;;;;3.47;3.17;;;;;;;6.57;100.00;96093.97;6310005;22;20007;-74
2023/10/16 07:42:55;;;;;;;5.28;3.50;;;;;;;6.61;100.00;96089.34;6283120;22;20057;-74
2023/10/16 07:45:20;;;;;;;4.28;3.35;;;;;;;6.66;100.00;96091.66;6310654;22;20359;-74
2023/10/16 07:47:47;;;;;;;3.30;3.00;;;;;;;6.68;100.00;96085.38;6282383;22;20003;-74
2023/10/16 07:50:12;;;;;;;3.40;3.08;;;;;;;6.68;100.00;96090.63;6310242;22;20409;-74
2023/10/16 07:52:41;;;;;;;3.15;2.90;;;;;;;6.78;100.00;96095.19;6302840;22;20084;-74
2023/10/16 07:55:09;;;;;;;4.78;3.03;;;;;;;6.95;100.00;96093.97;6305207;22;19999;-75
2023/10/16 07:57:35;;;;;;;4.50;3.20;;;;;;;7.09;100.00;96090.41;6307323;22;20060;-74
2023/10/16 08:00:13;;;;;;;3.25;3.03;;;;;;;7.17;100.00;96088.06;6308141;22;20014;-74
2023/10/16 08:02:44;;;;;;;5.70;3.63;;;;;;;7.22;100.00;96090.34;6307962;22;20003;-75
2023/10/16 08:05:15;;;;;;;3.33;3.13;;;;;;;7.32;100.00;96096.56;6308130;22;20385;-77
2023/10/16 08:07:46;;;;;;;4.97;3.10;;;;;;;7.41;100.00;96100.31;6309394;22;19995;-76
2023/10/16 08:12:56;;;;;;;3.97;3.40;;;;;;;7.64;100.00;96098.63;6308644;22;20018;-76
2023/10/16 08:15:21;;;;;;;3.65;2.88;;;;;;;7.73;100.00;96087.44;6306294;22;19995;-77
2023/10/16 08:17:47;;;;;;;3.92;2.80;;;;;;;7.81;100.00;96084.25;6308443;22;20334;-76
2023/10/16 08:20:17;;;;;;;5.85;2.83;;;;;;;7.84;100.00;96085.78;6308954;22;20082;-76
2023/10/16 08:22:47;;;;;;;2.80;2.60;;;;;;;7.87;100.00;96073.28;6309164;22;20007;-76
2023/10/16 08:25:30;;;;;;;3.00;2.30;;;;;;;7.92;100.00;96087.84;6309594;22;20362;-76
2023/10/16 08:27:57;;;;;;;3.15;2.85;;;;;;;7.96;100.00;96087.50;6309862;22;20131;-76
2023/10/16 08:30:33;;;;;;;2.80;2.60;;;;;;;8.00;100.00;96088.94;6307749;22;20614;-76
2023/10/16 08:33:09;;;;;;;3.75;2.78;;;;;;;8.08;100.00;96090.16;6283186;22;20021;-76
2023/10/16 08:35:41;;;;;;;4.93;2.40;;;;;;;8.13;100.00;96088.03;6284265;22;20066;-76
2023/10/16 08:38:51;;;;;;;3.15;2.83;;;;;;;8.17;100.00;96092.06;6309227;22;20473;-77
2023/10/16 08:41:07;;;;;;;3.65;2.58;;;;;;;8.21;100.00;96087.44;6303012;22;20009;-77
2023/10/16 08:43:39;;;;;;;2.58;2.38;;;;;;;8.28;100.00;96094.69;6308966;22;20053;-75
2023/10/16 08:46:18;;;;;;;2.63;2.42;;;;;;;8.37;100.00;96089.72;6308755;22;19996;-74
2023/10/16 08:48:45;;;;;;;3.85;2.10;;;;;;;8.53;100.00;96092.84;6309326;22;19999;-75
2023/10/16 08:51:12;;;;;;;2.78;2.50;;;;;;;8.60;100.00;96104.53;6307363;22;20063;-75
2023/10/16 08:53:38;;;;;;;2.92;2.72;;;;;;;8.65;100.00;96088.44;6309293;22;20434;-75
2023/10/16 08:56:08;;;;;;;4.75;2.85;;;;;;;8.62;100.00;96086.06;6309005;22;20069;-75
2023/10/16 08:58:42;;;;;;;3.97;2.78;;;;;;;8.66;100.00;96081.38;6309819;22;20018;-75
2023/10/16 09:01:08;;;;;;;3.17;2.72;;;;;;;8.70;100.00;96083.66;6308900;22;20003;-75
2023/10/16 09:03:37;;;;;;;4.88;2.60;;;;;;;8.79;100.00;96076.84;6308971;22;20011;-75
2023/10/16 09:06:04;;;;;;;2.40;2.25;;;;;;;8.87;100.00;96073.63;6307484;22;20079;-75
2023/10/16 09:08:33;;;;;;;3.70;2.60;;;;;;;8.91;100.00;96058.44;6309431;22;20086;-75
2023/10/16 09:11:05;;;;;;;3.65;2.80;;;;;;;8.96;100.00;96048.41;6308819;22;20351;-75
2023/10/16 09:13:35;;;;;;;3.25;2.85;;;;;;;8.99;100.00;96045.53;6309160;22;20010;-75
2023/10/16 09:16:11;;;;;;;4.25;2.65;;;;;;;9.06;100.00;96048.47;6308459;22;20030;-75
2023/10/16 09:18:37;;;;;;;4.55;2.50;;;;;;;9.17;100.00;96041.44;6309371;22;20018;-75
2023/10/16 09:21:13;;;;;;;2.53;2.33;;;;;;;9.27;100.00;96043.28;6308965;22;20007;-75
2023/10/16 09:23:39;;;;;;;;;;;;;;;9.41;100.00;96037.75;6310140;22;20015;-75
2023/10/16 09:26:07;;;;;;;4.43;2.53;;;;;;;9.44;100.00;96027.00;6282428;22;19903;-75
2023/10/16 09:28:36;;;;;;;3.22;2.45;;;;;;;9.46;100.00;96037.34;6310355;22;20002;-75
2023/10/16 09:31:06;;;;;;;2.58;2.20;;;;;;;9.51;100.00;96037.84;6282173;22;20058;-75
2023/10/16 09:33:35;;;;;;;2.38;2.17;;;;;;;9.57;100.00;96031.22;6307893;22;20025;-75
2023/10/16 09:36:22;;;;;;;2.35;2.20;;;;;;;9.67;100.00;96013.72;6308895;22;19999;-75
2023/10/16 09:38:54;;;;;;;2.83;2.53;;;;;;;9.81;100.00;96006.47;6309037;22;20006;-75
2023/10/16 09:43:56;;;;;;;2.55;2.00;;;;;;;9.92;100.00;95995.88;6309528;22;20003;-75
2023/10/16 09:49:05;;;;;;;2.65;2.15;;;;;;;10.02;100.00;96003.81;6308917;22;19999;-75
2023/10/16 09:51:35;;;;;;;2.35;2.03;;;;;;;10.08;100.00;96000.66;6282131;22;19998;-75
2023/10/16 09:54:02;;;;;;;2.03;1.92;;;;;;;10.13;100.00;96008.97;6308987;22;20103;-75
2023/10/16 09:56:35;;;;;;;3.05;2.10;;;;;;;10.20;100.00;95998.78;6309343;22;20047;-75
2023/10/16 09:59:08;;;;;;;2.88;2.03;;;;;;;10.25;100.00;96001.81;6309348;22;19995;-74
2023/10/16 10:01:38;;;;;;;2.78;2.50;;;;;;;10.36;100.00;95997.44;6309308;22;19999;-75
2023/10/16 10:04:07;;;;;;;4.47;2.58;;;;;;;10.41;100.00;95996.13;6308858;22;20007;-74
2023/10/16 10:06:39;;;;;;;3.33;2.30;;;;;;;10.51;100.00;95993.53;6308986;22;20011;-75
2023/10/16 10:12:13;;;;;;;3.35;2.30;;;;;;;10.79;100.00;95972.66;6308899;22;20010;-74
2023/10/16 10:14:48;;;;;;;5.97;2.33;;;;;;;10.86;100.00;95976.41;6308416;22;20011;-75
2023/10/16 10:17:20;;;;;;;2.30;2.10;;;;;;;10.75;100.00;95971.28;6308836;22;20416;-74
2023/10/16 10:19:54;;;;;;;3.10;2.78;;;;;;;10.75;100.00;95979.16;6309296;22;20003;-75
2023/10/16 10:22:27;;;;;;;5.50;2.30;;;;;;;10.75;100.00;95982.63;6308781;22;20419;-74
2023/10/16 10:25:16;;;;;;;2.55;2.30;;;;;;;10.82;100.00;95990.81;6309257;22;20010;-74
2023/10/16 10:27:43;;;;;;;2.47;2.28;;;;;;;10.89;100.00;95985.84;6309943;22;19996;-75
2023/10/16 10:30:25;;;;;;;2.65;2.33;;;;;;;10.94;100.00;95985.41;6309517;22;19999;-74
2023/10/16 10:33:11;;;;;;;2.90;2.58;;;;;;;10.93;100.00;95989.84;6282384;22;20004;-74
2023/10/16 10:35:39;;;;;;;3.25;2.17;;;;;;;10.96;100.00;95983.50;6309996;22;20003;-75
2023/10/16 10:38:20;;;;;;;4.35;2.50;;;;;;;11.11;100.00;95983.91;6309220;22;20049;-75
2023/10/16 10:41:04;;;;;;;3.45;2.47;;;;;;;11.15;100.00;95970.31;6308290;22;20040;-75
2023/10/16 10:43:58;;;;;;;4.03;2.40;;;;;;;11.23;100.00;95966.97;6308557;22;19995;-75
2023/10/16 10:46:25;;;;;;;3.20;2.50;;;;;;;11.31;100.00;95972.41;6307745;22;19999;-74
2023/10/16 10:48:54;;;;;;;3.28;2.40;;;;;;;11.40;100.00;95962.84;6307833;22;19995;-74
2023/10/16 10:51:21;;;;;;;4.05;2.33;;;;;;;11.35;100.00;95954.50;6282000;22;20004;-74
2023/10/16 10:53:58;;;;;;;3.22;2.55;;;;;;;11.36;100.00;95953.50;6310062;22;20109;-74
2023/10/16 10:56:38;;;;;;;3.70;2.72;;;;;;;11.52;100.00;95954.75;6309700;22;20000;-74
2023/10/16 10:59:10;;;;;;;3.97;2.60;;;;;;;11.59;100.00;95947.94;6309811;22;20003;-74
2023/10/16 11:01:44;;;;;;;2.63;2.10;;;;;;;11.59;100.00;95951.41;6306657;22;20014;-74
2023/10/16 11:04:15;;;;;;;2.63;2.40;;;;;;;11.51;100.00;95943.38;6307314;22;20030;-75
2023/10/16 11:06:52;;;;;;;2.97;2.28;;;;;;;11.37;100.00;95936.72;6309381;22;20401;-75
2023/10/16 11:09:19;;;;;;;3.40;2.70;;;;;;;11.36;100.00;95948.25;6309248;22;20014;-75
2023/10/16 11:11:50;;;;;;;2.80;2.35;;;;;;;11.48;100.00;95945.47;6280255;22;20000;-75
2023/10/16 11:14:16;;;;;;;2.40;2.20;;;;;;;11.44;100.00;95945.75;6308154;22;20031;-75
2023/10/16 11:16:45;;;;;;;3.45;2.50;;;;;;;11.32;100.00;95946.88;6307366;22;20053;-75
2023/10/16 11:19:11;;;;;;;2.83;2.60;;;;;;;11.22;100.00;95946.88;6308686;22;20076;-75
2023/10/16 11:21:43;;;;;;;2.63;2.20;;;;;;;11.17;100.00;95949.09;6308852;22;20064;-75
2023/10/16 11:24:13;;;;;;;2.88;2.60;;;;;;;11.12;100.00;95949.50;6310237;22;20316;-75
2023/10/16 11:26:41;;;;;;;2.40;2.20;;;;;;;11.16;100.00;95943.00;6310877;22;19999;-75
2023/10/16 11:29:06;;;;;;;3.58;2.20;;;;;;;11.27;100.00;95933.28;6310348;22;20286;-75
2023/10/16 11:31:40;;;;;;;4.45;2.70;;;;;;;11.31;100.00;95934.66;6282722;22;20088;-75
2023/10/16 11:34:19;;;;;;;3.72;2.53;;;;;;;11.33;100.00;95924.81;6309408;22;20038;-75
2023/10/16 11:36:50;;;;;;;3.97;2.97;;;;;;;11.55;100.00;95928.09;6309969;22;20437;-75
2023/10/16 11:39:19;;;;;;;2.58;2.35;;;;;;;11.88;100.00;95928.56;6283218;22;20023;-75
2023/10/16 11:41:46;;;;;;;8.23;3.00;;;;;;;12.15;100.00;95911.13;6310961;22;20049;-75
2023/10/16 11:44:16;;;;;;;3.95;2.65;;;;;;;12.29;100.00;95897.44;6310176;22;20003;-75
2023/10/16 11:46:55;;;;;;;3.03;2.70;;;;;;;12.39;100.00;95873.63;6282891;22;20063;-75
2023/10/16 11:51:48;;;;;;;3.40;2.60;;;;;;;12.60;100.00;95873.34;6310742;22;20164;-75
2023/10/16 11:54:21;;;;;;;2.60;2.40;;;;;;;12.70;100.00;95864.50;6310160;22;19995;-75
2023/10/16 11:56:53;;;;;;;4.78;2.50;;;;;;;12.63;100.00;95869.59;6310451;22;19999;-75
2023/10/16 11:59:19;;;;;;;5.68;2.42;;;;;;;12.57;100.00;95857.81;6310199;22;20074;-75
2023/10/16 12:01:45;;;;;;;3.67;2.78;;;;;;;12.60;100.00;95856.69;6283408;22;20325;-75
2023/10/16 12:04:12;;;;;;;3.22;2.92;;;;;;;12.98;100.00;95848.59;6310065;22;20054;-74
2023/10/16 12:06:38;;;;;;;7.50;2.70;;;;;;;12.70;100.00;95836.28;6309460;22;20006;-75
2023/10/16 12:09:05;;;;;;;3.28;2.40;;;;;;;12.69;100.00;95862.84;6310151;22;20002;-75
2023/10/16 12:11:31;;;;;;;5.38;3.00;;;;;;;12.95;100.00;95864.75;6309377;22;19999;-74
2023/10/16 12:13:56;;;;;;;2.60;2.40;;;;;;;12.74;100.00;95839.47;6310023;22;20110;-74
2023/10/16 12:16:24;;;;;;;3.25;2.50;;;;;;;12.75;100.00;95827.91;6310004;22;20476;-75
2023/10/16 12:18:51;;;;;;;3.17;2.28;;;;;;;12.57;100.00;95841.97;6310198;22;20409;-75
2023/10/16 12:21:17;;;;;;;3.17;2.35;;;;;;;12.64;100.00;95849.25;6309905;22;19996;-75
2023/10/16 12:23:43;;;;;;;2.45;2.25;;;;;;;12.87;100.00;95839.91;6309062;22;20309;-74
2023/10/16 12:26:09;;;;;;;3.30;2.72;;;;;;;12.60;100.00;95846.13;6309807;22;20003;-75
2023/10/16 12:28:34;;;;;;;6.63;2.30;;;;;;;12.87;100.00;95841.72;6310323;22;20053;-77
2023/10/16 12:31:02;;;;;;;2.28;2.05;;;;;;;12.68;100.00;95840.06;6307883;22;20010;-76
2023/10/16 12:33:30;;;;;;;2.85;2.22;;;;;;;12.50;100.00;95843.56;6283132;22;20007;-77
2023/10/16 12:35:57;;;;;;;3.92;2.38;;;;;;;12.61;100.00;95853.88;6309560;22;20009;-77
2023/10/16 12:38:23;;;;;;;3.22;2.15;;;;;;;12.77;100.00;95841.81;6310322;22;20058;-77
2023/10/16 12:40:53;;;;;;;2.35;2.15;;;;;;;12.90;100.00;95844.06;6309455;22;20022;-77
2023/10/16 12:43:20;;;;;;;3.10;2.13;;;;;;;13.10;100.00;95842.06;6283660;22;20144;-77
2023/10/16 12:45:47;;;;;;;3.03;2.08;;;;;;;13.11;100.00;95840.25;6310211;22;20158;-77
2023/10/16 12:48:12;;;;;;;4.45;2.22;;;;;;;13.10;100.00;95831.47;6310185;22;20472;-77
2023/10/16 12:50:38;;;;;;;5.85;2.30;;;;;;;13.12;100.00;95837.44;6308370;22;20007;-76
2023/10/16 12:53:03;;;;;;;2.85;2.30;;;;;;;13.15;100.00;95831.88;6309442;22;20003;-76
2023/10/16 12:55:29;;;;;;;3.28;2.40;;;;;;;13.18;100.00;95831.56;6282241;22;20405;-76
2023/10/16 12:57:55;;;;;;;3.85;2.28;;;;;;;13.29;100.00;95830.47;6309803;22;19999;-76
2023/10/16 13:00:22;;;;;;;2.35;2.10;;;;;;;13.30;100.00;95824.19;6279789;22;20035;-76
2023/10/16 13:02:49;;;;;;;4.40;2.40;;;;;;;13.37;100.00;95820.91;6308813;22;20018;-76
2023/10/16 13:05:18;;;;;;;2.80;2.45;;;;;;;13.38;100.00;95810.19;6309907;22;20010;-77
2023/10/16 13:07:47;;;;;;;3.20;2.60;;;;;;;13.31;100.00;95814.44;6310202;22;19995;-78
2023/10/16 13:10:16;;;;;;;4.53;2.63;;;;;;;13.26;100.00;95809.63;6309258;22;20003;-77
2023/10/16 13:12:43;;;;;;;4.35;2.67;;;;;;;13.51;100.00;95814.25;6309189;22;20007;-77
2023/10/16 13:15:10;;;;;;;5.05;2.70;;;;;;;13.56;100.00;95804.03;6309095;22;20409;-77
2023/10/16 13:17:36;;;;;;;4.78;2.22;;;;;;;13.48;100.00;95802.16;6308715;22;20006;-77
2023/10/16 13:20:06;;;;;;;4.43;2.05;;;;;;;13.43;100.00;95797.34;6308353;22;19995;-77
2023/10/16 13:22:32;;;;;;;3.95;2.00;;;;;;;13.39;100.00;95801.28;6307933;22;20317;-75
2023/10/16 13:24:59;;;;;;;2.60;2.40;;;;;;;13.46;100.00;95809.41;6307572;22;20654;-76
2023/10/16 13:27:24;;;;;;;6.35;3.03;;;;;;;13.56;100.00;95799.56;6306632;22;19999;-75
2023/10/16 13:29:51;;;;;;;3.33;2.10;;;;;;;13.48;100.00;95788.94;6306945;22;20002;-76
2023/10/16 13:32:17;;;;;;;2.45;2.25;;;;;;;13.39;100.00;95793.34;6307546;22;20015;-75
2023/10/16 13:34:42;;;;;;;7.07;2.40;;;;;;;13.64;100.00;95793.50;6307195;22;20010;-75
2023/10/16 13:37:08;;;;;;;3.50;2.30;;;;;;;13.29;100.00;95788.16;6307324;22;20007;-75
2023/10/16 13:39:43;;;;;;;2.65;2.38;;;;;;;13.39;100.00;95798.63;6281094;22;20010;-75